createdAt,value
2023-02-27T00:00:18.766Z,87349.91
2023-02-27T00:03:04.893Z,87349.63
2023-02-27T00:05:49.837Z,87341.72
2023-02-27T00:08:34.654Z,87349.66
2023-02-27T00:11:19.890Z,87343.78
2023-02-27T00:14:04.672Z,87344.00
2023-02-27T00:16:49.532Z,87350.50
2023-02-27T00:19:34.244Z,87356.50
2023-02-27T00:22:18.987Z,87358.56
2023-02-27T00:25:03.723Z,87359.44
2023-02-27T00:27:48.590Z,87361.56
2023-02-27T00:30:33.174Z,87364.81
2023-02-27T00:33:18.378Z,87362.22
2023-02-27T00:36:03.197Z,87364.06
2023-02-27T00:38:47.913Z,87367.81
2023-02-27T00:41:32.718Z,87368.72
2023-02-27T00:44:17.322Z,87371.97
2023-02-27T00:47:02.112Z,87362.84
2023-02-27T00:49:47.023Z,87372.69
2023-02-27T00:52:31.793Z,87374.63
2023-02-27T00:55:16.573Z,87367.47
2023-02-27T00:58:01.346Z,87381.19
2023-02-27T01:00:46.098Z,87379.53
2023-02-27T01:03:30.765Z,87380.94
2023-02-27T01:06:15.482Z,87382.75
2023-02-27T01:09:00.289Z,87385.53
2023-02-27T01:11:45.019Z,87383.44
2023-02-27T01:14:29.708Z,87382.75
2023-02-27T01:17:14.602Z,87386.06
2023-02-27T01:19:59.339Z,87386.56
2023-02-27T01:22:44.025Z,87393.81
2023-02-27T01:25:28.816Z,87391.19
2023-02-27T01:28:13.538Z,87395.34
2023-02-27T01:30:58.349Z,87387.16
2023-02-27T01:33:42.949Z,87390.59
2023-02-27T01:36:27.674Z,87394.13
2023-02-27T01:39:12.294Z,87395.03
2023-02-27T01:41:57.151Z,87390.44
2023-02-27T01:44:41.885Z,87394.94
2023-02-27T01:47:26.806Z,87395.94
2023-02-27T01:50:11.398Z,87394.75
2023-02-27T01:52:56.306Z,87398.00
2023-02-27T01:55:40.980Z,87402.88
2023-02-27T01:58:25.702Z,87390.97
2023-02-27T02:01:10.543Z,87393.97
2023-02-27T02:03:55.329Z,87400.72
2023-02-27T02:06:40.122Z,87401.84
2023-02-27T02:09:24.795Z,87403.72
2023-02-27T02:12:09.722Z,87397.88
2023-02-27T02:14:54.382Z,87401.59
2023-02-27T02:17:39.169Z,87400.13
2023-02-27T02:20:23.931Z,87408.50
2023-02-27T02:23:08.817Z,87406.16
2023-02-27T02:25:53.362Z,87410.59
2023-02-27T02:28:38.188Z,87403.59
2023-02-27T02:31:23.004Z,87402.88
2023-02-27T02:34:08.185Z,87400.72
2023-02-27T02:36:53.131Z,87411.72
2023-02-27T02:39:37.928Z,87413.41
2023-02-27T02:42:22.817Z,87414.78
2023-02-27T02:45:07.591Z,87412.25
2023-02-27T02:47:52.328Z,87420.84
2023-02-27T02:50:36.969Z,87421.72
2023-02-27T02:53:21.676Z,87428.53
2023-02-27T02:56:06.367Z,87424.56
2023-02-27T02:58:51.106Z,87420.34
2023-02-27T03:01:35.891Z,87420.56
2023-02-27T03:04:20.673Z,87422.19
2023-02-27T03:07:05.399Z,87421.66
2023-02-27T03:09:50.232Z,87434.69
2023-02-27T03:12:35.105Z,87437.94
2023-02-27T03:15:19.773Z,87432.38
2023-02-27T03:18:04.603Z,87440.09
2023-02-27T03:20:49.185Z,87434.50
2023-02-27T03:23:34.012Z,87442.88
2023-02-27T03:26:18.741Z,87449.41
2023-02-27T03:29:03.477Z,87453.34
2023-02-27T03:31:48.312Z,87450.09
2023-02-27T03:34:33.579Z,87450.31
2023-02-27T03:37:18.551Z,87455.63
2023-02-27T03:40:03.743Z,87457.50
2023-02-27T03:42:48.492Z,87461.03
2023-02-27T03:45:33.206Z,87466.41
2023-02-27T03:48:18.232Z,87461.97
2023-02-27T03:51:02.974Z,87466.16
2023-02-27T03:53:47.935Z,87470.03
2023-02-27T03:56:32.652Z,87468.31
2023-02-27T03:59:17.428Z,87474.59
2023-02-27T04:02:02.323Z,87482.25
2023-02-27T04:04:47.408Z,87485.78
2023-02-27T04:07:32.117Z,87482.75
2023-02-27T04:10:16.798Z,87478.06
2023-02-27T04:13:01.604Z,87486.25
2023-02-27T04:15:46.457Z,87492.31
2023-02-27T04:18:31.211Z,87490.47
2023-02-27T04:21:15.977Z,87497.00
2023-02-27T04:24:01.307Z,87493.22
2023-02-27T04:26:46.104Z,87488.97
2023-02-27T04:29:31.068Z,87493.84
2023-02-27T04:32:15.885Z,87496.59
2023-02-27T04:35:01.018Z,87501.03
2023-02-27T04:37:45.814Z,87497.34
2023-02-27T04:40:30.551Z,87493.22
2023-02-27T04:43:15.317Z,87493.44
2023-02-27T04:46:00.057Z,87502.09
2023-02-27T04:48:45.288Z,87500.97
2023-02-27T04:51:29.938Z,87503.06
2023-02-27T04:54:14.598Z,87505.38
2023-02-27T04:56:59.325Z,87509.34
2023-02-27T04:59:43.987Z,87512.41
2023-02-27T05:02:28.813Z,87516.00
2023-02-27T05:05:13.954Z,87523.03
2023-02-27T05:07:58.767Z,87523.06
2023-02-27T05:10:43.323Z,87530.81
2023-02-27T05:13:28.174Z,87525.88
2023-02-27T05:16:12.779Z,87528.44
2023-02-27T05:18:57.581Z,87529.88
2023-02-27T05:21:42.261Z,87532.00
2023-02-27T05:24:27.070Z,87533.63
2023-02-27T05:27:11.738Z,87531.50
2023-02-27T05:29:56.615Z,87534.53
2023-02-27T05:32:41.352Z,87534.00
2023-02-27T05:35:28.916Z,87545.44
2023-02-27T05:38:13.809Z,87534.69
2023-02-27T05:40:58.639Z,87538.41
2023-02-27T05:43:43.298Z,87534.41
2023-02-27T05:46:28.145Z,87543.53
2023-02-27T05:49:12.846Z,87546.56
2023-02-27T05:51:57.673Z,87543.53
2023-02-27T05:54:42.331Z,87550.53
2023-02-27T05:57:27.144Z,87554.97
2023-02-27T06:00:11.867Z,87558.88
2023-02-27T06:02:56.649Z,87561.34
2023-02-27T06:05:41.309Z,87558.91
2023-02-27T06:08:26.152Z,87563.25
2023-02-27T06:11:10.758Z,87567.19
2023-02-27T06:13:55.652Z,87574.88
2023-02-27T06:16:40.514Z,87570.97
2023-02-27T06:19:25.182Z,87577.56
2023-02-27T06:22:09.937Z,87585.94
2023-02-27T06:24:54.642Z,87585.94
2023-02-27T06:27:39.413Z,87589.69
2023-02-27T06:30:24.254Z,87600.00
2023-02-27T06:33:09.150Z,87604.06
2023-02-27T06:35:53.886Z,87601.72
2023-02-27T06:38:38.603Z,87605.16
2023-02-27T06:41:23.278Z,87610.50
2023-02-27T06:44:08.038Z,87619.50
2023-02-27T06:46:52.846Z,87619.72
2023-02-27T06:49:37.664Z,87620.88
2023-02-27T06:52:22.398Z,87632.03
2023-02-27T06:55:07.193Z,87628.25
2023-02-27T06:57:51.904Z,87634.59
2023-02-27T07:00:36.799Z,87639.66
2023-02-27T07:03:21.472Z,87640.50
2023-02-27T07:06:06.214Z,87639.00
2023-02-27T07:09:01.385Z,87644.75
2023-02-27T07:11:51.397Z,87645.88
2023-02-27T07:14:36.263Z,87647.06
2023-02-27T07:17:21.015Z,87656.13
2023-02-27T07:20:05.771Z,87655.81
2023-02-27T07:22:50.451Z,87656.00
2023-02-27T07:25:35.215Z,87659.66
2023-02-27T07:28:20.023Z,87666.09
2023-02-27T07:31:04.734Z,87665.97
2023-02-27T07:33:49.576Z,87669.47
2023-02-27T07:36:34.235Z,87662.53
2023-02-27T07:39:18.857Z,87665.72
2023-02-27T07:42:03.723Z,87670.88
2023-02-27T07:44:48.493Z,87678.19
2023-02-27T07:47:33.131Z,87676.44
2023-02-27T07:50:17.915Z,87684.41
2023-02-27T07:53:02.750Z,87687.81
2023-02-27T07:55:47.368Z,87688.41
2023-02-27T07:58:32.084Z,87693.53
2023-02-27T08:01:16.766Z,87695.50
2023-02-27T08:04:01.587Z,87698.66
2023-02-27T08:06:46.365Z,87698.25
2023-02-27T08:09:31.095Z,87697.09
2023-02-27T08:12:15.833Z,87700.59
2023-02-27T08:15:00.564Z,87701.47
2023-02-27T08:17:45.312Z,87707.41
2023-02-27T08:20:30.097Z,87704.59
2023-02-27T08:23:14.983Z,87716.53
2023-02-27T08:25:59.735Z,87716.66
2023-02-27T08:28:44.517Z,87719.16
2023-02-27T08:31:29.331Z,87710.09
2023-02-27T08:34:14.223Z,87728.63
2023-02-27T08:36:59.030Z,87724.38
2023-02-27T08:39:43.879Z,87730.19
2023-02-27T08:42:28.611Z,87726.22
2023-02-27T08:45:13.324Z,87729.38
2023-02-27T08:47:58.029Z,87720.44
2023-02-27T08:50:42.734Z,87722.06
2023-02-27T08:53:27.512Z,87726.81
2023-02-27T08:56:12.298Z,87726.34
2023-02-27T08:58:57.215Z,87726.13
2023-02-27T09:01:41.894Z,87729.91
2023-02-27T09:04:26.734Z,87734.16
2023-02-27T09:07:11.487Z,87742.22
2023-02-27T09:09:56.145Z,87744.81
2023-02-27T09:12:40.878Z,87742.13
2023-02-27T09:15:25.693Z,87753.38
2023-02-27T09:18:10.419Z,87755.84
2023-02-27T09:20:55.338Z,87750.78
2023-02-27T09:23:40.413Z,87755.47
2023-02-27T09:26:40.767Z,87753.50
2023-02-27T09:29:28.562Z,87750.31
2023-02-27T09:32:13.389Z,87761.09
2023-02-27T09:34:58.648Z,87762.97
2023-02-27T09:37:43.415Z,87766.78
2023-02-27T09:40:28.109Z,87766.63
2023-02-27T09:43:12.897Z,87765.06
2023-02-27T09:45:57.651Z,87766.06
2023-02-27T09:48:42.349Z,87767.50
2023-02-27T09:51:27.366Z,87775.16
2023-02-27T09:54:12.394Z,87769.47
2023-02-27T09:56:57.127Z,87776.34
2023-02-27T09:59:41.882Z,87778.13
2023-02-27T10:02:26.750Z,87778.13
2023-02-27T10:05:11.524Z,87783.69
2023-02-27T10:07:56.503Z,87796.34
2023-02-27T10:10:41.178Z,87798.22
2023-02-27T10:13:26.132Z,87798.50
2023-02-27T10:16:10.798Z,87801.81
2023-02-27T10:18:55.546Z,87799.28
2023-02-27T10:21:40.324Z,87798.66
2023-02-27T10:24:25.163Z,87803.75
2023-02-27T10:27:09.897Z,87803.81
2023-02-27T10:29:54.646Z,87806.91
2023-02-27T10:32:39.383Z,87797.75
2023-02-27T10:35:24.191Z,87808.00
2023-02-27T10:38:09.097Z,87799.06
2023-02-27T10:40:53.812Z,87800.28
2023-02-27T10:43:38.823Z,87805.91
2023-02-27T10:46:23.602Z,87804.22
2023-02-27T10:49:08.361Z,87798.09
2023-02-27T10:51:52.991Z,87801.16
2023-02-27T10:54:37.661Z,87809.00
2023-02-27T10:57:22.408Z,87804.63
2023-02-27T11:00:07.157Z,87797.22
2023-02-27T11:02:51.874Z,87795.97
2023-02-27T11:05:36.722Z,87798.69
2023-02-27T11:08:22.756Z,87799.50
2023-02-27T11:11:07.847Z,87791.31
2023-02-27T11:13:52.684Z,87793.25
2023-02-27T11:16:37.413Z,87795.97
2023-02-27T11:19:22.182Z,87795.03
2023-02-27T11:22:06.834Z,87794.16
2023-02-27T11:24:51.750Z,87791.53
2023-02-27T11:27:36.513Z,87789.06
2023-02-27T11:30:21.211Z,87784.50
2023-02-27T11:33:06.105Z,87777.81
2023-02-27T11:35:50.903Z,87781.09
2023-02-27T11:38:42.217Z,87780.88
2023-02-27T11:41:27.349Z,87775.09
2023-02-27T11:44:12.392Z,87769.44
2023-02-27T11:46:56.957Z,87771.94
2023-02-27T11:49:41.743Z,87775.16
2023-02-27T11:52:26.503Z,87772.59
2023-02-27T11:55:11.179Z,87771.91
2023-02-27T11:57:55.905Z,87766.44
2023-02-27T12:00:40.568Z,87774.09
2023-02-27T12:03:25.243Z,87770.22
2023-02-27T12:06:10.130Z,87763.59
2023-02-27T12:08:54.892Z,87771.53
2023-02-27T12:11:39.727Z,87760.91
2023-02-27T12:14:24.446Z,87755.22
2023-02-27T12:17:09.292Z,87762.19
2023-02-27T12:19:53.905Z,87754.09
2023-02-27T12:22:38.628Z,87749.16
2023-02-27T12:25:23.231Z,87754.84
2023-02-27T12:28:08.223Z,87750.84
2023-02-27T12:30:52.859Z,87748.34
2023-02-27T12:33:37.589Z,87746.56
2023-02-27T12:36:22.439Z,87744.25
2023-02-27T12:39:07.126Z,87740.19
2023-02-27T12:41:51.958Z,87753.25
2023-02-27T12:44:36.739Z,87745.66
2023-02-27T12:47:21.597Z,87752.63
2023-02-27T12:50:06.178Z,87752.81
2023-02-27T12:52:51.109Z,87747.31
2023-02-27T12:55:35.770Z,87754.41
2023-02-27T12:58:20.450Z,87753.50
2023-02-27T13:01:05.217Z,87747.72
2023-02-27T13:03:50.461Z,87745.94
2023-02-27T13:06:37.309Z,87749.63
2023-02-27T13:09:22.065Z,87744.00
2023-02-27T13:12:06.821Z,87743.41
2023-02-27T13:14:52.132Z,87746.06
2023-02-27T13:17:37.052Z,87742.91
2023-02-27T13:20:21.803Z,87744.47
2023-02-27T13:23:06.393Z,87749.22
2023-02-27T13:25:51.702Z,87749.72
2023-02-27T13:28:36.358Z,87752.69
2023-02-27T13:31:21.175Z,87746.75
2023-02-27T13:34:05.844Z,87744.34
2023-02-27T13:36:50.653Z,87742.72
2023-02-27T13:39:35.317Z,87748.13
2023-02-27T13:42:20.073Z,87739.94
2023-02-27T13:45:04.756Z,87739.78
2023-02-27T13:47:49.401Z,87746.06
2023-02-27T13:50:34.180Z,87741.81
2023-02-27T13:53:19.197Z,87743.00
2023-02-27T13:56:04.394Z,87741.53
2023-02-27T13:58:49.145Z,87741.38
2023-02-27T14:01:33.900Z,87739.78
2023-02-27T14:04:18.450Z,87736.19
2023-02-27T14:07:03.225Z,87744.53
2023-02-27T14:09:47.976Z,87741.47
2023-02-27T14:12:43.951Z,87740.69
2023-02-27T14:15:29.899Z,87748.00
2023-02-27T14:18:28.861Z,87749.53
2023-02-27T14:21:18.592Z,87743.41
2023-02-27T14:24:03.158Z,87751.47
2023-02-27T14:26:47.863Z,87748.63
2023-02-27T14:29:32.547Z,87754.09
2023-02-27T14:32:17.388Z,87747.63
2023-02-27T14:35:02.111Z,87742.25
2023-02-27T14:37:46.927Z,87750.81
2023-02-27T14:40:31.741Z,87746.22
2023-02-27T14:43:16.661Z,87751.69
2023-02-27T14:46:01.330Z,87752.63
2023-02-27T14:48:46.118Z,87753.66
2023-02-27T14:51:30.909Z,87750.44
2023-02-27T14:54:16.085Z,87750.81
2023-02-27T14:57:00.865Z,87752.22
2023-02-27T14:59:45.485Z,87747.78
2023-02-27T15:02:30.338Z,87749.34
2023-02-27T15:05:15.144Z,87747.13
2023-02-27T15:07:59.991Z,87753.03
2023-02-27T15:10:44.801Z,87753.03
2023-02-27T15:13:29.595Z,87751.97
2023-02-27T15:16:16.625Z,87753.84
2023-02-27T15:19:01.449Z,87755.69
2023-02-27T15:21:46.317Z,87758.03
2023-02-27T15:24:37.651Z,87753.97
2023-02-27T15:27:28.992Z,87761.97
2023-02-27T15:30:13.806Z,87763.75
2023-02-27T15:32:58.545Z,87762.22
2023-02-27T15:35:43.161Z,87767.84
2023-02-27T15:38:27.944Z,87765.72
2023-02-27T15:41:12.710Z,87764.19
2023-02-27T15:43:57.482Z,87762.97
2023-02-27T15:46:42.209Z,87771.22
2023-02-27T15:49:27.100Z,87771.75
2023-02-27T15:52:11.750Z,87771.06
2023-02-27T15:54:56.451Z,87780.13
2023-02-27T15:57:47.509Z,87774.25
2023-02-27T16:00:37.982Z,87778.22
2023-02-27T16:03:22.662Z,87785.50
2023-02-27T16:06:07.642Z,87786.28
2023-02-27T16:08:52.280Z,87793.84
2023-02-27T16:11:36.986Z,87792.25
2023-02-27T16:14:21.785Z,87799.56
2023-02-27T16:17:06.439Z,87793.03
2023-02-27T16:19:51.274Z,87793.41
2023-02-27T16:22:36.028Z,87796.50
2023-02-27T16:25:20.936Z,87798.69
2023-02-27T16:28:05.559Z,87792.13
2023-02-27T16:30:50.532Z,87795.22
2023-02-27T16:33:35.200Z,87798.78
2023-02-27T16:36:20.114Z,87806.53
2023-02-27T16:39:05.066Z,87804.66
2023-02-27T16:41:49.847Z,87808.59
2023-02-27T16:44:34.617Z,87818.84
2023-02-27T16:47:19.395Z,87819.66
2023-02-27T16:50:04.103Z,87829.75
2023-02-27T16:52:48.671Z,87831.72
2023-02-27T16:55:33.830Z,87837.66
2023-02-27T16:58:18.949Z,87841.63
2023-02-27T17:01:03.890Z,87849.66
2023-02-27T17:03:48.737Z,87847.97
2023-02-27T17:06:33.476Z,87844.81
2023-02-27T17:09:18.256Z,87855.25
2023-02-27T17:12:02.959Z,87857.03
2023-02-27T17:14:47.737Z,87858.72
2023-02-27T17:17:32.507Z,87860.63
2023-02-27T17:20:17.224Z,87866.53
2023-02-27T17:23:01.927Z,87874.59
2023-02-27T17:25:46.758Z,87873.44
2023-02-27T17:28:31.412Z,87871.47
2023-02-27T17:31:16.261Z,87876.50
2023-02-27T17:34:01.191Z,87879.41
2023-02-27T17:36:45.926Z,87886.53
2023-02-27T17:39:30.824Z,87901.09
2023-02-27T17:42:15.612Z,87909.06
2023-02-27T17:45:00.553Z,87910.94
2023-02-27T17:47:45.341Z,87914.97
2023-02-27T17:50:30.222Z,87915.28
2023-02-27T17:53:14.961Z,87925.41
2023-02-27T17:55:59.790Z,87934.97
2023-02-27T17:58:44.578Z,87931.03
2023-02-27T18:01:29.338Z,87929.25
2023-02-27T18:04:14.175Z,87934.44
2023-02-27T18:06:58.871Z,87935.41
2023-02-27T18:09:43.708Z,87940.13
2023-02-27T18:12:28.577Z,87947.84
2023-02-27T18:15:13.378Z,87949.06
2023-02-27T18:17:58.051Z,87958.03
2023-02-27T18:20:42.993Z,87965.50
2023-02-27T18:23:27.641Z,87968.34
2023-02-27T18:26:23.491Z,87975.56
2023-02-27T18:29:13.854Z,87987.25
2023-02-27T18:31:58.598Z,87995.19
2023-02-27T18:34:43.430Z,87992.84
2023-02-27T18:37:28.090Z,87996.81
2023-02-27T18:40:12.962Z,88002.91
2023-02-27T18:42:57.672Z,88006.84
2023-02-27T18:45:42.906Z,88006.84
2023-02-27T18:48:27.787Z,88012.00
2023-02-27T18:51:12.544Z,88015.28
2023-02-27T18:53:57.287Z,88012.22
2023-02-27T18:56:42.116Z,88018.03
2023-02-27T18:59:26.939Z,88021.50
2023-02-27T19:02:11.732Z,88025.94
2023-02-27T19:04:56.648Z,88031.06
2023-02-27T19:07:41.362Z,88037.38
2023-02-27T19:10:26.274Z,88041.09
2023-02-27T19:13:11.120Z,88038.09
2023-02-27T19:15:56.067Z,88044.59
2023-02-27T19:18:40.606Z,88041.31
2023-02-27T19:21:25.441Z,88041.56
2023-02-27T19:24:10.201Z,88050.91
2023-02-27T19:26:55.036Z,88050.66
2023-02-27T19:29:39.775Z,88054.59
2023-02-27T19:32:24.577Z,88052.00
2023-02-27T19:35:09.308Z,88052.94
2023-02-27T19:37:53.996Z,88055.94
2023-02-27T19:40:38.788Z,88058.72
2023-02-27T19:43:23.506Z,88065.22
2023-02-27T19:46:08.251Z,88062.84
2023-02-27T19:48:53.067Z,88064.00
2023-02-27T19:51:37.727Z,88064.72
2023-02-27T19:54:22.533Z,88072.59
2023-02-27T19:57:07.354Z,88066.97
2023-02-27T19:59:52.071Z,88078.22
2023-02-27T20:02:36.766Z,88076.56
2023-02-27T20:05:21.835Z,88077.19
2023-02-27T20:08:06.632Z,88075.56
2023-02-27T20:10:51.428Z,88074.66
2023-02-27T20:13:36.194Z,88074.56
2023-02-27T20:16:20.942Z,88078.03
2023-02-27T20:19:05.601Z,88084.16
2023-02-27T20:21:50.453Z,88087.91
2023-02-27T20:24:35.126Z,88087.16
2023-02-27T20:27:19.950Z,88081.03
2023-02-27T20:30:04.735Z,88086.38
2023-02-27T20:32:49.424Z,88088.75
2023-02-27T20:35:34.235Z,88089.88
2023-02-27T20:38:19.514Z,88088.19
2023-02-27T20:41:04.218Z,88091.38
2023-02-27T20:43:49.077Z,88092.97
2023-02-27T20:46:33.758Z,88096.72
2023-02-27T20:49:18.657Z,88100.97
2023-02-27T20:52:03.571Z,88107.16
2023-02-27T20:54:48.407Z,88106.69
2023-02-27T20:57:33.147Z,88109.19
2023-02-27T21:00:17.944Z,88110.59
2023-02-27T21:03:02.626Z,88116.22
2023-02-27T21:05:47.522Z,88118.72
2023-02-27T21:08:32.422Z,88116.03
2023-02-27T21:11:17.246Z,88119.69
2023-02-27T21:14:02.044Z,88115.72
2023-02-27T21:16:46.733Z,88115.47
2023-02-27T21:19:31.508Z,88118.94
2023-02-27T21:22:16.424Z,88121.75
2023-02-27T21:25:01.682Z,88120.38
2023-02-27T21:27:46.554Z,88126.63
2023-02-27T21:30:31.486Z,88121.19
2023-02-27T21:33:16.232Z,88116.34
2023-02-27T21:36:00.988Z,88115.63
2023-02-27T21:38:45.864Z,88115.19
2023-02-27T21:41:31.039Z,88118.91
2023-02-27T21:44:16.039Z,88121.00
2023-02-27T21:47:00.781Z,88123.06
2023-02-27T21:49:45.701Z,88127.28
2023-02-27T21:52:30.326Z,88116.91
2023-02-27T21:55:15.525Z,88117.13
2023-02-27T21:58:02.104Z,88125.00
2023-02-27T22:00:49.023Z,88126.63
2023-02-27T22:03:33.864Z,88124.63
2023-02-27T22:06:18.644Z,88128.06
2023-02-27T22:09:03.586Z,88129.66
2023-02-27T22:11:48.451Z,88136.44
2023-02-27T22:14:33.013Z,88136.25
2023-02-27T22:17:17.734Z,88151.59
2023-02-27T22:20:02.492Z,88141.81
2023-02-27T22:22:47.125Z,88144.56
2023-02-27T22:25:31.976Z,88151.22
2023-02-27T22:28:16.667Z,88157.19
2023-02-27T22:31:01.717Z,88153.53
2023-02-27T22:33:46.387Z,88160.47
2023-02-27T22:36:31.095Z,88162.09
2023-02-27T22:39:16.106Z,88165.59
2023-02-27T22:42:00.886Z,88168.63
2023-02-27T22:44:45.691Z,88162.59
2023-02-27T22:47:30.465Z,88157.59
2023-02-27T22:50:15.267Z,88152.09
2023-02-27T22:52:59.936Z,88163.00
2023-02-27T22:55:44.760Z,88165.38
2023-02-27T22:58:29.520Z,88162.91
2023-02-27T23:01:14.457Z,88170.09
2023-02-27T23:03:59.228Z,88163.84
2023-02-27T23:06:43.940Z,88160.63
2023-02-27T23:09:28.591Z,88160.47
2023-02-27T23:12:13.179Z,88160.47
2023-02-27T23:14:58.019Z,88164.63
2023-02-27T23:17:52.951Z,88175.47
2023-02-27T23:20:43.179Z,88175.66
2023-02-27T23:23:28.239Z,88174.56
2023-02-27T23:26:12.864Z,88177.78
2023-02-27T23:28:57.525Z,88177.00
2023-02-27T23:31:42.309Z,88174.84
2023-02-27T23:34:27.064Z,88176.16
2023-02-27T23:37:11.865Z,88187.47
2023-02-27T23:39:56.735Z,88189.09
2023-02-27T23:42:41.439Z,88184.22
2023-02-27T23:45:26.378Z,88186.09
2023-02-27T23:48:10.991Z,88182.44
2023-02-27T23:50:55.710Z,88187.28
2023-02-27T23:53:40.278Z,88178.72
2023-02-27T23:56:25.058Z,88177.53
2023-02-27T23:59:09.776Z,88174.31
